sensor_id;sensor_type;location;lat;lon;timestamp;P1;durP1;ratioP1;P2;durP2;ratioP2
2476;SDS011;1249;51.270;6.756;2023-06-22T00:00:42;2.73;;;2.53;;
2476;SDS011;1249;51.270;6.756;2023-06-22T00:03:08;4.87;;;2.63;;
2476;SDS011;1249;51.270;6.756;2023-06-22T00:05:34;2.93;;;2.63;;
2476;SDS011;1249;51.270;6.756;2023-06-22T00:08:02;2.80;;;2.60;;
2476;SDS011;1249;51.270;6.756;2023-06-22T00:10:29;2.50;;;2.30;;
2476;SDS011;1249;51.270;6.756;2023-06-22T00:12:55;3.20;;;2.90;;
2476;SDS011;1249;51.270;6.756;2023-06-22T00:15:20;4.30;;;3.00;;
2476;SDS011;1249;51.270;6.756;2023-06-22T00:17:46;2.63;;;2.43;;
2476;SDS011;1249;51.270;6.756;2023-06-22T00:20:11;3.00;;;2.70;;
2476;SDS011;1249;51.270;6.756;2023-06-22T00:22:37;4.20;;;2.70;;
2476;SDS011;1249;51.270;6.756;2023-06-22T00:25:05;2.70;;;2.50;;
2476;SDS011;1249;51.270;6.756;2023-06-22T00:27:34;3.23;;;2.70;;
2476;SDS011;1249;51.270;6.756;2023-06-22T00:30:00;3.60;;;2.80;;
2476;SDS011;1249;51.270;6.756;2023-06-22T00:32:26;3.20;;;3.00;;
2476;SDS011;1249;51.270;6.756;2023-06-22T00:34:51;5.07;;;2.80;;
2476;SDS011;1249;51.270;6.756;2023-06-22T00:37:17;9.33;;;4.13;;
2476;SDS011;1249;51.270;6.756;2023-06-22T00:39:43;4.23;;;3.13;;
2476;SDS011;1249;51.270;6.756;2023-06-22T00:42:09;3.63;;;3.33;;
2476;SDS011;1249;51.270;6.756;2023-06-22T00:44:35;3.97;;;3.67;;
2476;SDS011;1249;51.270;6.756;2023-06-22T00:47:01;3.13;;;2.93;;
2476;SDS011;1249;51.270;6.756;2023-06-22T00:49:27;4.47;;;3.90;;
2476;SDS011;1249;51.270;6.756;2023-06-22T00:51:53;4.83;;;3.80;;
2476;SDS011;1249;51.270;6.756;2023-06-22T00:54:21;5.80;;;3.87;;
2476;SDS011;1249;51.270;6.756;2023-06-22T00:56:52;4.43;;;3.60;;
2476;SDS011;1249;51.270;6.756;2023-06-22T00:59:21;4.20;;;3.80;;
2476;SDS011;1249;51.270;6.756;2023-06-22T01:01:47;4.10;;;3.80;;
2476;SDS011;1249;51.270;6.756;2023-06-22T01:04:12;3.80;;;3.47;;
2476;SDS011;1249;51.270;6.756;2023-06-22T01:06:43;4.03;;;3.73;;
2476;SDS011;1249;51.270;6.756;2023-06-22T01:09:22;6.40;;;3.90;;
2476;SDS011;1249;51.270;6.756;2023-06-22T01:11:57;4.67;;;4.13;;
2476;SDS011;1249;51.270;6.756;2023-06-22T01:16:54;6.93;;;4.63;;
2476;SDS011;1249;51.270;6.756;2023-06-22T01:30:10;5.30;;;4.17;;
2476;SDS011;1249;51.270;6.756;2023-06-22T01:32:38;3.90;;;3.50;;
2476;SDS011;1249;51.270;6.756;2023-06-22T01:35:05;4.87;;;4.47;;
2476;SDS011;1249;51.270;6.756;2023-06-22T01:37:33;4.97;;;4.47;;
2476;SDS011;1249;51.270;6.756;2023-06-22T01:40:00;5.20;;;4.70;;
2476;SDS011;1249;51.270;6.756;2023-06-22T01:42:26;4.53;;;4.00;;
2476;SDS011;1249;51.270;6.756;2023-06-22T01:44:53;4.70;;;4.30;;
2476;SDS011;1249;51.270;6.756;2023-06-22T01:47:22;4.37;;;3.93;;
2476;SDS011;1249;51.270;6.756;2023-06-22T01:49:49;4.80;;;4.43;;
2476;SDS011;1249;51.270;6.756;2023-06-22T01:52:16;6.87;;;4.93;;
2476;SDS011;1249;51.270;6.756;2023-06-22T01:54:43;5.57;;;5.07;;
2476;SDS011;1249;51.270;6.756;2023-06-22T01:57:08;4.70;;;4.30;;
2476;SDS011;1249;51.270;6.756;2023-06-22T01:59:37;6.23;;;4.70;;
2476;SDS011;1249;51.270;6.756;2023-06-22T02:02:18;4.70;;;4.20;;
2476;SDS011;1249;51.270;6.756;2023-06-22T02:07:23;5.43;;;4.70;;
2476;SDS011;1249;51.270;6.756;2023-06-22T02:09:51;5.60;;;5.10;;
2476;SDS011;1249;51.270;6.756;2023-06-22T02:12:21;7.07;;;5.33;;
2476;SDS011;1249;51.270;6.756;2023-06-22T02:14:49;6.70;;;5.80;;
2476;SDS011;1249;51.270;6.756;2023-06-22T02:17:17;5.10;;;4.70;;
2476;SDS011;1249;51.270;6.756;2023-06-22T02:19:43;5.93;;;5.43;;
2476;SDS011;1249;51.270;6.756;2023-06-22T02:22:08;7.83;;;5.23;;
2476;SDS011;1249;51.270;6.756;2023-06-22T02:24:34;8.00;;;5.00;;
2476;SDS011;1249;51.270;6.756;2023-06-22T02:27:00;5.77;;;4.70;;
2476;SDS011;1249;51.270;6.756;2023-06-22T02:29:27;4.30;;;3.63;;
2476;SDS011;1249;51.270;6.756;2023-06-22T02:31:53;7.20;;;5.50;;
2476;SDS011;1249;51.270;6.756;2023-06-22T02:34:20;5.00;;;4.50;;
2476;SDS011;1249;51.270;6.756;2023-06-22T02:36:47;6.33;;;5.03;;
2476;SDS011;1249;51.270;6.756;2023-06-22T02:41:47;5.23;;;4.70;;
2476;SDS011;1249;51.270;6.756;2023-06-22T02:44:13;6.83;;;5.90;;
2476;SDS011;1249;51.270;6.756;2023-06-22T02:46:39;8.10;;;4.97;;
2476;SDS011;1249;51.270;6.756;2023-06-22T02:49:04;6.60;;;5.70;;
2476;SDS011;1249;51.270;6.756;2023-06-22T02:51:32;8.43;;;5.47;;
2476;SDS011;1249;51.270;6.756;2023-06-22T02:53:59;6.20;;;5.60;;
2476;SDS011;1249;51.270;6.756;2023-06-22T02:56:25;6.00;;;5.47;;
2476;SDS011;1249;51.270;6.756;2023-06-22T02:58:51;7.37;;;5.10;;
2476;SDS011;1249;51.270;6.756;2023-06-22T03:01:17;5.93;;;5.40;;
2476;SDS011;1249;51.270;6.756;2023-06-22T03:03:49;5.63;;;4.90;;
2476;SDS011;1249;51.270;6.756;2023-06-22T03:06:14;7.60;;;5.50;;
2476;SDS011;1249;51.270;6.756;2023-06-22T03:08:40;5.70;;;5.10;;
2476;SDS011;1249;51.270;6.756;2023-06-22T03:11:06;5.63;;;5.10;;
2476;SDS011;1249;51.270;6.756;2023-06-22T03:13:32;6.80;;;6.20;;
2476;SDS011;1249;51.270;6.756;2023-06-22T03:15:58;7.07;;;6.37;;
2476;SDS011;1249;51.270;6.756;2023-06-22T03:18:24;6.10;;;5.37;;
2476;SDS011;1249;51.270;6.756;2023-06-22T03:20:49;7.20;;;6.00;;
2476;SDS011;1249;51.270;6.756;2023-06-22T03:23:15;8.20;;;6.00;;
2476;SDS011;1249;51.270;6.756;2023-06-22T03:25:41;6.10;;;5.53;;
2476;SDS011;1249;51.270;6.756;2023-06-22T03:28:09;7.93;;;6.57;;
2476;SDS011;1249;51.270;6.756;2023-06-22T03:30:35;7.57;;;5.83;;
2476;SDS011;1249;51.270;6.756;2023-06-22T03:33:00;6.53;;;5.93;;
2476;SDS011;1249;51.270;6.756;2023-06-22T03:35:26;7.80;;;6.50;;
2476;SDS011;1249;51.270;6.756;2023-06-22T03:37:52;7.17;;;6.50;;
2476;SDS011;1249;51.270;6.756;2023-06-22T03:40:17;8.07;;;6.80;;
2476;SDS011;1249;51.270;6.756;2023-06-22T03:42:43;7.70;;;6.20;;
2476;SDS011;1249;51.270;6.756;2023-06-22T03:45:09;7.50;;;6.80;;
2476;SDS011;1249;51.270;6.756;2023-06-22T03:47:35;9.40;;;6.73;;
2476;SDS011;1249;51.270;6.756;2023-06-22T03:50:00;8.03;;;6.00;;
2476;SDS011;1249;51.270;6.756;2023-06-22T03:52:28;8.53;;;6.20;;
2476;SDS011;1249;51.270;6.756;2023-06-22T03:54:54;8.80;;;7.40;;
2476;SDS011;1249;51.270;6.756;2023-06-22T03:57:20;9.73;;;6.97;;
2476;SDS011;1249;51.270;6.756;2023-06-22T03:59:46;6.97;;;6.40;;
2476;SDS011;1249;51.270;6.756;2023-06-22T04:02:11;7.60;;;6.90;;
2476;SDS011;1249;51.270;6.756;2023-06-22T04:04:37;7.63;;;6.93;;
2476;SDS011;1249;51.270;6.756;2023-06-22T04:07:04;8.40;;;7.00;;
2476;SDS011;1249;51.270;6.756;2023-06-22T04:09:29;8.13;;;7.33;;
2476;SDS011;1249;51.270;6.756;2023-06-22T04:11:55;8.03;;;6.40;;
2476;SDS011;1249;51.270;6.756;2023-06-22T04:14:20;7.17;;;6.47;;
2476;SDS011;1249;51.270;6.756;2023-06-22T04:16:46;8.70;;;6.73;;
2476;SDS011;1249;51.270;6.756;2023-06-22T04:19:11;8.00;;;7.20;;
2476;SDS011;1249;51.270;6.756;2023-06-22T04:21:41;7.10;;;6.50;;
2476;SDS011;1249;51.270;6.756;2023-06-22T04:24:09;9.60;;;7.70;;
2476;SDS011;1249;51.270;6.756;2023-06-22T04:26:35;8.43;;;7.57;;
2476;SDS011;1249;51.270;6.756;2023-06-22T04:29:02;7.20;;;6.50;;
2476;SDS011;1249;51.270;6.756;2023-06-22T04:31:30;8.30;;;7.50;;
2476;SDS011;1249;51.270;6.756;2023-06-22T04:34:01;17.63;;;9.20;;
2476;SDS011;1249;51.270;6.756;2023-06-22T04:36:32;9.43;;;8.43;;
2476;SDS011;1249;51.270;6.756;2023-06-22T04:39:04;9.00;;;8.10;;
2476;SDS011;1249;51.270;6.756;2023-06-22T04:41:31;7.67;;;6.97;;
2476;SDS011;1249;51.270;6.756;2023-06-22T04:44:06;9.07;;;6.50;;
2476;SDS011;1249;51.270;6.756;2023-06-22T04:46:52;8.97;;;8.20;;
2476;SDS011;1249;51.270;6.756;2023-06-22T04:49:33;11.77;;;8.20;;
2476;SDS011;1249;51.270;6.756;2023-06-22T04:52:02;8.97;;;7.33;;
2476;SDS011;1249;51.270;6.756;2023-06-22T04:54:29;7.80;;;7.10;;
2476;SDS011;1249;51.270;6.756;2023-06-22T04:56:58;8.17;;;7.37;;
2476;SDS011;1249;51.270;6.756;2023-06-22T04:59:28;8.17;;;7.37;;
2476;SDS011;1249;51.270;6.756;2023-06-22T05:01:59;8.80;;;8.00;;
2476;SDS011;1249;51.270;6.756;2023-06-22T05:04:27;8.43;;;7.63;;
2476;SDS011;1249;51.270;6.756;2023-06-22T05:06:53;13.33;;;8.10;;
2476;SDS011;1249;51.270;6.756;2023-06-22T05:09:19;11.87;;;8.40;;
2476;SDS011;1249;51.270;6.756;2023-06-22T05:11:45;9.50;;;8.30;;
2476;SDS011;1249;51.270;6.756;2023-06-22T05:14:11;8.13;;;7.33;;
2476;SDS011;1249;51.270;6.756;2023-06-22T05:16:38;9.20;;;7.53;;
2476;SDS011;1249;51.270;6.756;2023-06-22T05:19:04;8.00;;;7.17;;
2476;SDS011;1249;51.270;6.756;2023-06-22T05:21:30;8.90;;;7.97;;
2476;SDS011;1249;51.270;6.756;2023-06-22T05:23:56;8.93;;;7.73;;
2476;SDS011;1249;51.270;6.756;2023-06-22T05:26:25;10.10;;;7.70;;
2476;SDS011;1249;51.270;6.756;2023-06-22T05:28:51;10.10;;;8.83;;
2476;SDS011;1249;51.270;6.756;2023-06-22T05:31:18;8.27;;;7.47;;
2476;SDS011;1249;51.270;6.756;2023-06-22T05:33:44;12.37;;;7.90;;
2476;SDS011;1249;51.270;6.756;2023-06-22T05:36:10;8.10;;;7.30;;
2476;SDS011;1249;51.270;6.756;2023-06-22T05:38:37;12.70;;;7.83;;
2476;SDS011;1249;51.270;6.756;2023-06-22T05:41:03;9.87;;;8.97;;
2476;SDS011;1249;51.270;6.756;2023-06-22T05:43:29;9.63;;;8.40;;
2476;SDS011;1249;51.270;6.756;2023-06-22T05:45:55;8.70;;;7.90;;
2476;SDS011;1249;51.270;6.756;2023-06-22T05:48:20;9.50;;;7.87;;
2476;SDS011;1249;51.270;6.756;2023-06-22T05:50:46;10.10;;;9.20;;
2476;SDS011;1249;51.270;6.756;2023-06-22T05:53:12;8.77;;;7.97;;
2476;SDS011;1249;51.270;6.756;2023-06-22T05:55:37;8.80;;;7.07;;
2476;SDS011;1249;51.270;6.756;2023-06-22T05:58:03;10.17;;;8.97;;
2476;SDS011;1249;51.270;6.756;2023-06-22T06:00:29;11.20;;;9.30;;
2476;SDS011;1249;51.270;6.756;2023-06-22T06:02:54;10.53;;;9.53;;
2476;SDS011;1249;51.270;6.756;2023-06-22T06:05:20;10.43;;;9.00;;
2476;SDS011;1249;51.270;6.756;2023-06-22T06:07:46;9.73;;;8.67;;
2476;SDS011;1249;51.270;6.756;2023-06-22T06:10:11;12.80;;;9.17;;
2476;SDS011;1249;51.270;6.756;2023-06-22T06:12:37;9.10;;;8.13;;
2476;SDS011;1249;51.270;6.756;2023-06-22T06:15:03;11.00;;;9.90;;
2476;SDS011;1249;51.270;6.756;2023-06-22T06:17:29;12.00;;;10.80;;
2476;SDS011;1249;51.270;6.756;2023-06-22T06:19:55;22.00;;;10.67;;
2476;SDS011;1249;51.270;6.756;2023-06-22T06:22:21;11.93;;;9.10;;
2476;SDS011;1249;51.270;6.756;2023-06-22T06:24:48;8.50;;;7.73;;
2476;SDS011;1249;51.270;6.756;2023-06-22T06:27:14;11.60;;;9.60;;
2476;SDS011;1249;51.270;6.756;2023-06-22T06:29:39;9.40;;;8.50;;
2476;SDS011;1249;51.270;6.756;2023-06-22T06:32:05;11.67;;;8.60;;
2476;SDS011;1249;51.270;6.756;2023-06-22T06:34:31;9.17;;;8.17;;
2476;SDS011;1249;51.270;6.756;2023-06-22T06:36:57;10.60;;;9.20;;
2476;SDS011;1249;51.270;6.756;2023-06-22T06:39:22;9.73;;;8.90;;
2476;SDS011;1249;51.270;6.756;2023-06-22T06:41:48;9.37;;;8.43;;
2476;SDS011;1249;51.270;6.756;2023-06-22T06:44:13;12.40;;;9.20;;
2476;SDS011;1249;51.270;6.756;2023-06-22T06:46:39;10.07;;;8.70;;
2476;SDS011;1249;51.270;6.756;2023-06-22T06:49:04;12.30;;;10.23;;
2476;SDS011;1249;51.270;6.756;2023-06-22T06:51:30;11.23;;;10.07;;
2476;SDS011;1249;51.270;6.756;2023-06-22T06:53:55;10.47;;;9.53;;
2476;SDS011;1249;51.270;6.756;2023-06-22T06:56:21;11.93;;;9.60;;
2476;SDS011;1249;51.270;6.756;2023-06-22T06:58:46;11.00;;;10.00;;
2476;SDS011;1249;51.270;6.756;2023-06-22T07:01:14;14.27;;;9.57;;
2476;SDS011;1249;51.270;6.756;2023-06-22T07:03:40;11.47;;;10.37;;
2476;SDS011;1249;51.270;6.756;2023-06-22T07:06:05;11.33;;;10.23;;
2476;SDS011;1249;51.270;6.756;2023-06-22T07:08:31;11.50;;;10.30;;
2476;SDS011;1249;51.270;6.756;2023-06-22T07:10:56;11.90;;;10.80;;
2476;SDS011;1249;51.270;6.756;2023-06-22T07:13:23;12.57;;;11.30;;
2476;SDS011;1249;51.270;6.756;2023-06-22T07:15:48;13.00;;;9.90;;
2476;SDS011;1249;51.270;6.756;2023-06-22T07:18:14;9.67;;;8.77;;
2476;SDS011;1249;51.270;6.756;2023-06-22T07:20:39;9.50;;;8.50;;
2476;SDS011;1249;51.270;6.756;2023-06-22T07:23:06;10.50;;;9.60;;
2476;SDS011;1249;51.270;6.756;2023-06-22T07:25:31;9.90;;;9.10;;
2476;SDS011;1249;51.270;6.756;2023-06-22T07:30:29;12.97;;;10.30;;
2476;SDS011;1249;51.270;6.756;2023-06-22T07:32:56;10.47;;;8.57;;
2476;SDS011;1249;51.270;6.756;2023-06-22T07:35:23;10.43;;;9.40;;
2476;SDS011;1249;51.270;6.756;2023-06-22T07:37:49;10.83;;;9.83;;
2476;SDS011;1249;51.270;6.756;2023-06-22T07:40:14;9.07;;;8.27;;
2476;SDS011;1249;51.270;6.756;2023-06-22T07:42:40;9.77;;;8.87;;
2476;SDS011;1249;51.270;6.756;2023-06-22T07:45:06;11.63;;;10.00;;
2476;SDS011;1249;51.270;6.756;2023-06-22T07:47:35;11.43;;;9.90;;
2476;SDS011;1249;51.270;6.756;2023-06-22T07:50:01;12.07;;;10.63;;
2476;SDS011;1249;51.270;6.756;2023-06-22T07:52:27;11.40;;;10.07;;
2476;SDS011;1249;51.270;6.756;2023-06-22T07:54:53;10.77;;;9.73;;
2476;SDS011;1249;51.270;6.756;2023-06-22T07:57:19;12.20;;;9.77;;
2476;SDS011;1249;51.270;6.756;2023-06-22T07:59:45;10.90;;;9.90;;
2476;SDS011;1249;51.270;6.756;2023-06-22T08:02:10;13.27;;;10.87;;
2476;SDS011;1249;51.270;6.756;2023-06-22T08:04:36;10.87;;;9.77;;
2476;SDS011;1249;51.270;6.756;2023-06-22T08:07:02;12.70;;;11.50;;
2476;SDS011;1249;51.270;6.756;2023-06-22T08:09:30;10.37;;;9.37;;
2476;SDS011;1249;51.270;6.756;2023-06-22T08:11:56;12.03;;;9.07;;
2476;SDS011;1249;51.270;6.756;2023-06-22T08:14:23;9.10;;;8.20;;
2476;SDS011;1249;51.270;6.756;2023-06-22T08:16:52;12.37;;;10.53;;
2476;SDS011;1249;51.270;6.756;2023-06-22T08:19:17;10.67;;;9.67;;
2476;SDS011;1249;51.270;6.756;2023-06-22T08:21:43;11.57;;;9.40;;
2476;SDS011;1249;51.270;6.756;2023-06-22T08:24:09;9.03;;;8.23;;
2476;SDS011;1249;51.270;6.756;2023-06-22T08:26:34;13.00;;;9.67;;
2476;SDS011;1249;51.270;6.756;2023-06-22T08:29:02;9.87;;;8.67;;
2476;SDS011;1249;51.270;6.756;2023-06-22T08:31:28;10.30;;;9.40;;
2476;SDS011;1249;51.270;6.756;2023-06-22T08:33:54;8.27;;;7.50;;
2476;SDS011;1249;51.270;6.756;2023-06-22T08:36:19;10.53;;;9.57;;
2476;SDS011;1249;51.270;6.756;2023-06-22T08:38:45;10.70;;;9.83;;
2476;SDS011;1249;51.270;6.756;2023-06-22T08:41:15;11.40;;;9.10;;
2476;SDS011;1249;51.270;6.756;2023-06-22T08:43:41;9.43;;;8.53;;
2476;SDS011;1249;51.270;6.756;2023-06-22T08:46:08;8.43;;;7.70;;
2476;SDS011;1249;51.270;6.756;2023-06-22T08:48:33;8.30;;;7.50;;
2476;SDS011;1249;51.270;6.756;2023-06-22T08:50:59;11.30;;;10.20;;
2476;SDS011;1249;51.270;6.756;2023-06-22T08:53:24;9.00;;;7.80;;
2476;SDS011;1249;51.270;6.756;2023-06-22T08:55:50;10.33;;;9.53;;
2476;SDS011;1249;51.270;6.756;2023-06-22T08:58:15;8.33;;;7.43;;
2476;SDS011;1249;51.270;6.756;2023-06-22T09:00:41;9.33;;;8.43;;
2476;SDS011;1249;51.270;6.756;2023-06-22T09:03:07;9.37;;;8.20;;
2476;SDS011;1249;51.270;6.756;2023-06-22T09:05:33;10.77;;;7.60;;
2476;SDS011;1249;51.270;6.756;2023-06-22T09:07:58;8.40;;;7.60;;
2476;SDS011;1249;51.270;6.756;2023-06-22T09:10:24;8.13;;;7.07;;
2476;SDS011;1249;51.270;6.756;2023-06-22T09:12:50;6.57;;;5.97;;
2476;SDS011;1249;51.270;6.756;2023-06-22T09:15:16;7.40;;;6.70;;
2476;SDS011;1249;51.270;6.756;2023-06-22T09:17:41;7.07;;;6.47;;
2476;SDS011;1249;51.270;6.756;2023-06-22T09:20:07;6.87;;;6.17;;
2476;SDS011;1249;51.270;6.756;2023-06-22T09:22:35;6.63;;;6.00;;
2476;SDS011;1249;51.270;6.756;2023-06-22T09:25:01;6.73;;;5.57;;
2476;SDS011;1249;51.270;6.756;2023-06-22T09:27:28;6.20;;;5.60;;
2476;SDS011;1249;51.270;6.756;2023-06-22T09:29:53;8.17;;;6.30;;
2476;SDS011;1249;51.270;6.756;2023-06-22T09:32:19;6.10;;;5.27;;
2476;SDS011;1249;51.270;6.756;2023-06-22T09:34:45;6.80;;;6.20;;
2476;SDS011;1249;51.270;6.756;2023-06-22T09:37:10;8.13;;;6.23;;
2476;SDS011;1249;51.270;6.756;2023-06-22T09:39:36;7.17;;;6.47;;
2476;SDS011;1249;51.270;6.756;2023-06-22T09:42:02;7.80;;;7.17;;
2476;SDS011;1249;51.270;6.756;2023-06-22T09:44:27;7.40;;;6.70;;
2476;SDS011;1249;51.270;6.756;2023-06-22T09:46:53;8.50;;;7.70;;
2476;SDS011;1249;51.270;6.756;2023-06-22T09:49:18;8.20;;;7.40;;
2476;SDS011;1249;51.270;6.756;2023-06-22T09:51:44;8.57;;;7.17;;
2476;SDS011;1249;51.270;6.756;2023-06-22T09:54:09;8.83;;;7.93;;
2476;SDS011;1249;51.270;6.756;2023-06-22T09:56:35;8.37;;;7.50;;
2476;SDS011;1249;51.270;6.756;2023-06-22T09:59:02;8.83;;;8.03;;
2476;SDS011;1249;51.270;6.756;2023-06-22T10:01:28;7.63;;;6.97;;
2476;SDS011;1249;51.270;6.756;2023-06-22T10:03:53;11.17;;;7.37;;
2476;SDS011;1249;51.270;6.756;2023-06-22T10:06:21;6.87;;;6.27;;
2476;SDS011;1249;51.270;6.756;2023-06-22T10:08:47;7.37;;;6.67;;
2476;SDS011;1249;51.270;6.756;2023-06-22T10:11:13;7.10;;;6.40;;
2476;SDS011;1249;51.270;6.756;2023-06-22T10:13:39;6.90;;;6.40;;
2476;SDS011;1249;51.270;6.756;2023-06-22T10:16:04;7.77;;;7.07;;
2476;SDS011;1249;51.270;6.756;2023-06-22T10:18:30;8.73;;;6.83;;
2476;SDS011;1249;51.270;6.756;2023-06-22T10:20:56;8.47;;;7.70;;
2476;SDS011;1249;51.270;6.756;2023-06-22T10:23:21;7.17;;;6.50;;
2476;SDS011;1249;51.270;6.756;2023-06-22T10:25:47;8.10;;;7.40;;
2476;SDS011;1249;51.270;6.756;2023-06-22T10:28:13;7.77;;;7.17;;
2476;SDS011;1249;51.270;6.756;2023-06-22T10:30:42;8.73;;;7.83;;
2476;SDS011;1249;51.270;6.756;2023-06-22T10:33:08;8.20;;;7.30;;
2476;SDS011;1249;51.270;6.756;2023-06-22T10:35:35;9.07;;;8.27;;
2476;SDS011;1249;51.270;6.756;2023-06-22T10:38:02;9.33;;;8.33;;
2476;SDS011;1249;51.270;6.756;2023-06-22T10:40:28;8.83;;;8.00;;
2476;SDS011;1249;51.270;6.756;2023-06-22T10:42:54;8.53;;;7.70;;
2476;SDS011;1249;51.270;6.756;2023-06-22T10:45:19;9.70;;;8.90;;
2476;SDS011;1249;51.270;6.756;2023-06-22T10:47:45;16.50;;;9.13;;
2476;SDS011;1249;51.270;6.756;2023-06-22T10:50:10;10.10;;;9.20;;
2476;SDS011;1249;51.270;6.756;2023-06-22T10:52:37;9.53;;;8.63;;
2476;SDS011;1249;51.270;6.756;2023-06-22T10:55:03;11.40;;;9.90;;
2476;SDS011;1249;51.270;6.756;2023-06-22T10:57:29;10.30;;;9.00;;
2476;SDS011;1249;51.270;6.756;2023-06-22T10:59:54;10.67;;;9.67;;
2476;SDS011;1249;51.270;6.756;2023-06-22T11:02:20;14.83;;;12.00;;
2476;SDS011;1249;51.270;6.756;2023-06-22T11:04:45;23.10;;;13.80;;
2476;SDS011;1249;51.270;6.756;2023-06-22T11:07:12;21.90;;;12.93;;
2476;SDS011;1249;51.270;6.756;2023-06-22T11:09:38;14.17;;;12.70;;
2476;SDS011;1249;51.270;6.756;2023-06-22T11:12:04;16.77;;;14.23;;
2476;SDS011;1249;51.270;6.756;2023-06-22T11:14:30;15.33;;;13.00;;
2476;SDS011;1249;51.270;6.756;2023-06-22T11:16:58;16.37;;;13.47;;
2476;SDS011;1249;51.270;6.756;2023-06-22T11:19:24;15.90;;;13.80;;
2476;SDS011;1249;51.270;6.756;2023-06-22T11:21:49;18.60;;;13.80;;
2476;SDS011;1249;51.270;6.756;2023-06-22T11:24:15;16.77;;;13.83;;
2476;SDS011;1249;51.270;6.756;2023-06-22T11:26:41;16.83;;;15.10;;
2476;SDS011;1249;51.270;6.756;2023-06-22T11:29:07;16.40;;;14.70;;
2476;SDS011;1249;51.270;6.756;2023-06-22T11:31:33;17.20;;;15.00;;
2476;SDS011;1249;51.270;6.756;2023-06-22T11:33:59;17.40;;;15.20;;
2476;SDS011;1249;51.270;6.756;2023-06-22T11:36:25;17.17;;;15.37;;
2476;SDS011;1249;51.270;6.756;2023-06-22T11:38:51;17.23;;;15.43;;
2476;SDS011;1249;51.270;6.756;2023-06-22T11:41:17;16.90;;;15.17;;
2476;SDS011;1249;51.270;6.756;2023-06-22T11:43:42;17.07;;;15.27;;
2476;SDS011;1249;51.270;6.756;2023-06-22T11:46:08;16.30;;;14.70;;
2476;SDS011;1249;51.270;6.756;2023-06-22T11:48:33;16.17;;;14.53;;
2476;SDS011;1249;51.270;6.756;2023-06-22T11:50:59;16.50;;;14.80;;
2476;SDS011;1249;51.270;6.756;2023-06-22T11:53:26;17.23;;;14.73;;
2476;SDS011;1249;51.270;6.756;2023-06-22T11:55:52;17.40;;;15.80;;
2476;SDS011;1249;51.270;6.756;2023-06-22T11:58:20;18.13;;;16.23;;
2476;SDS011;1249;51.270;6.756;2023-06-22T12:00:45;16.60;;;15.00;;
2476;SDS011;1249;51.270;6.756;2023-06-22T12:03:11;19.33;;;15.87;;
2476;SDS011;1249;51.270;6.756;2023-06-22T12:05:37;16.97;;;15.10;;
2476;SDS011;1249;51.270;6.756;2023-06-22T12:08:03;17.10;;;15.50;;
2476;SDS011;1249;51.270;6.756;2023-06-22T12:10:29;19.77;;;17.30;;
2476;SDS011;1249;51.270;6.756;2023-06-22T12:12:54;16.83;;;15.23;;
2476;SDS011;1249;51.270;6.756;2023-06-22T12:15:20;17.90;;;16.20;;
2476;SDS011;1249;51.270;6.756;2023-06-22T12:17:46;17.50;;;15.40;;
2476;SDS011;1249;51.270;6.756;2023-06-22T12:20:13;19.73;;;17.60;;
2476;SDS011;1249;51.270;6.756;2023-06-22T12:22:38;20.60;;;18.60;;
2476;SDS011;1249;51.270;6.756;2023-06-22T12:25:06;18.83;;;16.87;;
2476;SDS011;1249;51.270;6.756;2023-06-22T12:27:32;21.53;;;18.00;;
2476;SDS011;1249;51.270;6.756;2023-06-22T12:29:57;22.93;;;17.40;;
2476;SDS011;1249;51.270;6.756;2023-06-22T12:32:23;19.87;;;17.93;;
2476;SDS011;1249;51.270;6.756;2023-06-22T12:34:49;20.23;;;18.20;;
2476;SDS011;1249;51.270;6.756;2023-06-22T12:37:15;20.20;;;18.10;;
2476;SDS011;1249;51.270;6.756;2023-06-22T12:39:40;21.53;;;19.37;;
2476;SDS011;1249;51.270;6.756;2023-06-22T12:42:06;20.90;;;18.90;;
2476;SDS011;1249;51.270;6.756;2023-06-22T12:44:34;26.10;;;20.30;;
2476;SDS011;1249;51.270;6.756;2023-06-22T12:47:00;21.10;;;17.60;;
2476;SDS011;1249;51.270;6.756;2023-06-22T12:49:25;20.17;;;18.07;;
2476;SDS011;1249;51.270;6.756;2023-06-22T12:51:51;22.90;;;19.07;;
2476;SDS011;1249;51.270;6.756;2023-06-22T12:54:16;20.63;;;18.53;;
2476;SDS011;1249;51.270;6.756;2023-06-22T12:56:42;19.27;;;17.30;;
2476;SDS011;1249;51.270;6.756;2023-06-22T12:59:10;23.30;;;19.43;;
2476;SDS011;1249;51.270;6.756;2023-06-22T13:01:35;21.20;;;19.10;;
2476;SDS011;1249;51.270;6.756;2023-06-22T13:04:02;21.90;;;19.70;;
2476;SDS011;1249;51.270;6.756;2023-06-22T13:06:27;21.70;;;19.40;;
2476;SDS011;1249;51.270;6.756;2023-06-22T13:08:53;22.07;;;19.60;;
2476;SDS011;1249;51.270;6.756;2023-06-22T13:11:19;21.77;;;19.57;;
2476;SDS011;1249;51.270;6.756;2023-06-22T13:13:44;23.20;;;19.90;;
2476;SDS011;1249;51.270;6.756;2023-06-22T13:16:11;22.17;;;19.97;;
2476;SDS011;1249;51.270;6.756;2023-06-22T13:18:37;20.60;;;18.50;;
2476;SDS011;1249;51.270;6.756;2023-06-22T13:21:03;23.43;;;21.03;;
2476;SDS011;1249;51.270;6.756;2023-06-22T13:23:29;22.00;;;19.63;;
2476;SDS011;1249;51.270;6.756;2023-06-22T13:25:55;25.80;;;19.93;;
2476;SDS011;1249;51.270;6.756;2023-06-22T13:28:21;22.50;;;20.07;;
2476;SDS011;1249;51.270;6.756;2023-06-22T13:30:46;22.33;;;20.03;;
2476;SDS011;1249;51.270;6.756;2023-06-22T13:33:13;22.00;;;19.77;;
2476;SDS011;1249;51.270;6.756;2023-06-22T13:35:38;24.60;;;21.93;;
2476;SDS011;1249;51.270;6.756;2023-06-22T13:38:04;24.07;;;21.67;;
2476;SDS011;1249;51.270;6.756;2023-06-22T13:40:30;25.60;;;23.20;;
2476;SDS011;1249;51.270;6.756;2023-06-22T13:42:56;24.00;;;21.47;;
2476;SDS011;1249;51.270;6.756;2023-06-22T13:45:22;23.80;;;21.17;;
2476;SDS011;1249;51.270;6.756;2023-06-22T13:47:47;30.77;;;22.87;;
2476;SDS011;1249;51.270;6.756;2023-06-22T13:50:13;22.93;;;20.70;;
2476;SDS011;1249;51.270;6.756;2023-06-22T13:52:39;23.40;;;21.10;;
2476;SDS011;1249;51.270;6.756;2023-06-22T13:55:04;24.13;;;21.70;;
2476;SDS011;1249;51.270;6.756;2023-06-22T13:57:31;26.30;;;23.60;;
2476;SDS011;1249;51.270;6.756;2023-06-22T13:59:57;23.43;;;21.10;;
2476;SDS011;1249;51.270;6.756;2023-06-22T14:02:23;23.90;;;21.50;;
2476;SDS011;1249;51.270;6.756;2023-06-22T14:04:49;22.87;;;20.67;;
2476;SDS011;1249;51.270;6.756;2023-06-22T14:07:14;24.13;;;21.80;;
2476;SDS011;1249;51.270;6.756;2023-06-22T14:09:40;23.67;;;21.10;;
2476;SDS011;1249;51.270;6.756;2023-06-22T14:12:05;24.63;;;21.90;;
2476;SDS011;1249;51.270;6.756;2023-06-22T14:14:32;22.90;;;20.13;;
2476;SDS011;1249;51.270;6.756;2023-06-22T14:16:58;21.50;;;19.30;;
2476;SDS011;1249;51.270;6.756;2023-06-22T14:19:24;24.03;;;21.60;;
2476;SDS011;1249;51.270;6.756;2023-06-22T14:21:49;22.93;;;20.53;;
2476;SDS011;1249;51.270;6.756;2023-06-22T14:24:15;22.63;;;20.23;;
2476;SDS011;1249;51.270;6.756;2023-06-22T14:26:41;24.60;;;21.90;;
2476;SDS011;1249;51.270;6.756;2023-06-22T14:29:06;25.43;;;22.83;;
2476;SDS011;1249;51.270;6.756;2023-06-22T14:31:32;24.47;;;22.17;;
2476;SDS011;1249;51.270;6.756;2023-06-22T14:33:57;24.27;;;21.70;;
2476;SDS011;1249;51.270;6.756;2023-06-22T14:36:23;22.60;;;20.40;;
2476;SDS011;1249;51.270;6.756;2023-06-22T14:38:49;23.90;;;21.50;;
2476;SDS011;1249;51.270;6.756;2023-06-22T14:41:14;23.90;;;21.50;;
2476;SDS011;1249;51.270;6.756;2023-06-22T14:43:45;24.77;;;22.27;;
2476;SDS011;1249;51.270;6.756;2023-06-22T14:46:12;23.20;;;20.80;;
2476;SDS011;1249;51.270;6.756;2023-06-22T14:48:39;22.43;;;20.03;;
2476;SDS011;1249;51.270;6.756;2023-06-22T14:51:04;22.57;;;20.27;;
2476;SDS011;1249;51.270;6.756;2023-06-22T14:53:30;23.27;;;20.93;;
2476;SDS011;1249;51.270;6.756;2023-06-22T14:55:55;23.67;;;21.23;;
2476;SDS011;1249;51.270;6.756;2023-06-22T14:58:21;22.70;;;20.50;;
2476;SDS011;1249;51.270;6.756;2023-06-22T15:00:47;21.03;;;18.83;;
2476;SDS011;1249;51.270;6.756;2023-06-22T15:03:12;21.20;;;19.07;;
2476;SDS011;1249;51.270;6.756;2023-06-22T15:05:42;22.90;;;20.60;;
2476;SDS011;1249;51.270;6.756;2023-06-22T15:08:11;23.97;;;20.53;;
2476;SDS011;1249;51.270;6.756;2023-06-22T15:10:36;23.00;;;20.57;;
2476;SDS011;1249;51.270;6.756;2023-06-22T15:13:02;24.80;;;19.60;;
2476;SDS011;1249;51.270;6.756;2023-06-22T15:15:27;24.77;;;19.40;;
2476;SDS011;1249;51.270;6.756;2023-06-22T15:17:53;22.40;;;20.23;;
2476;SDS011;1249;51.270;6.756;2023-06-22T15:20:18;19.20;;;17.20;;